EZY87VV LGSK-EGKK
Flight info
| Callsign | EZY87VV |
|---|---|
| Flight time | N/A |
| Altitude | 38000 |
| Route | IBIDI UL617 TSL UN130 TALAS DCT ENFAR DCT MSR DCT PEVAL DCT LAMPO DCT GUNGO DCT SAFFA DCT ELMUR DCT RIPUS DCT DITON DCT HOC DCT LUL DCT RLP DCT ROTSI DCT KOTUN DCT NINAL DCT KESAX DCT KUNAV |
| Aircraft | A20N/M-SDE2E3FGHIJ1RWXYZ/LB1G1 |
Departure
| Time | 2026-05-05 11:15 |
|---|---|
| Airport | Skiathos Island National Airport (LGSK) |
Arrival
| Time | N/A |
|---|---|
| Airport | London Gatwick Airport (EGKK) |
| Time | Latitude | Longitude | Altitude | Speed | Heading |
|---|---|---|---|---|---|
| 2026-05-05 10:49 | 39.17877 | 23.50220 | 63 ft | 0 kts | 288° |
| 2026-05-05 11:05 | 39.17876 | 23.50225 | 63 ft | 2 kts | 289° |
| 2026-05-05 11:05 | 39.17871 | 23.50243 | 62 ft | 2 kts | 288° |
| 2026-05-05 11:05 | 39.17866 | 23.50261 | 61 ft | 2 kts | 288° |
| 2026-05-05 11:06 | 39.17861 | 23.50280 | 60 ft | 2 kts | 288° |
| 2026-05-05 11:06 | 39.17858 | 23.50291 | 59 ft | 2 kts | 288° |
| 2026-05-05 11:06 | 39.17860 | 23.50309 | 60 ft | 2 kts | 229° |
| 2026-05-05 11:06 | 39.17867 | 23.50315 | 60 ft | 1 kts | 199° |
| 2026-05-05 11:07 | 39.17873 | 23.50318 | 61 ft | 0 kts | 199° |
| 2026-05-05 11:11 | 39.17859 | 23.50312 | 59 ft | 6 kts | 199° |
| 2026-05-05 11:11 | 39.17792 | 23.50282 | 54 ft | 14 kts | 198° |
| 2026-05-05 11:11 | 39.17714 | 23.50273 | 47 ft | 8 kts | 129° |
| 2026-05-05 11:11 | 39.17674 | 23.50344 | 44 ft | 11 kts | 160° |
| 2026-05-05 11:12 | 39.17622 | 23.50329 | 40 ft | 10 kts | 199° |
| 2026-05-05 11:12 | 39.17530 | 23.50288 | 34 ft | 16 kts | 199° |
| 2026-05-05 11:12 | 39.17403 | 23.50230 | 25 ft | 21 kts | 199° |
| 2026-05-05 11:12 | 39.17249 | 23.50160 | 17 ft | 25 kts | 198° |
| 2026-05-05 11:13 | 39.17095 | 23.50092 | 12 ft | 17 kts | 198° |
| 2026-05-05 11:13 | 39.17025 | 23.50080 | 10 ft | 8 kts | 205° |
| 2026-05-05 11:13 | 39.17025 | 23.50039 | 10 ft | 3 kts | 16° |
| 2026-05-05 11:13 | 39.17044 | 23.50065 | 10 ft | 4 kts | 30° |
| 2026-05-05 11:14 | 39.17052 | 23.50069 | 10 ft | 0 kts | 18° |
| 2026-05-05 11:14 | 39.17256 | 23.50159 | 17 ft | 69 kts | 19° |
| 2026-05-05 11:14 | 39.17934 | 23.50460 | 62 ft | 132 kts | 19° |
| 2026-05-05 11:15 | 39.18928 | 23.50895 | 397 ft | 155 kts | 18° |
| 2026-05-05 11:15 | 39.19918 | 23.51327 | 1095 ft | 151 kts | 18° |
| 2026-05-05 11:15 | 39.20696 | 23.51680 | 1568 ft | 156 kts | 17° |